Time;durP1;ratioP1;P1;durP2;ratioP2;P2;SDS_P1;SDS_P2;PMS_P1;PMS_P2;Temp;Humidity;BMP_temperature;BMP_pressure;BME280_temperature;BME280_humidity;BME280_pressure;Samples;Min_cycle;Max_cycle;Signal;HPM_P1;HPM_P2
2022/05/20 00:00:57;;;;;;;3.70;1.88;;;;;;;15.10;46.33;102258.34;4939174;29;20026;-91
2022/05/20 00:03:23;;;;;;;4.75;2.10;;;;;;;15.05;46.24;102255.09;4938806;29;20102;-91
2022/05/20 00:05:49;;;;;;;2.78;1.70;;;;;;;15.09;46.38;102261.00;4938405;29;20039;-91
2022/05/20 00:08:14;;;;;;;2.40;1.50;;;;;;;15.09;44.28;102259.25;4922600;29;20058;-92
2022/05/20 00:10:40;;;;;;;4.45;1.70;;;;;;;15.07;45.88;102252.41;4922495;29;20117;-90
2022/05/20 00:13:06;;;;;;;3.70;1.70;;;;;;;15.03;45.93;102256.03;4938809;29;20144;-91
2022/05/20 00:15:31;;;;;;;4.05;1.80;;;;;;;14.91;45.92;102253.03;4955031;29;20027;-91
2022/05/20 00:17:57;;;;;;;3.45;1.88;;;;;;;14.89;45.76;102244.44;4922704;29;20090;-92
2022/05/20 00:20:23;;;;;;;3.97;1.70;;;;;;;14.82;44.87;102243.00;4938157;29;20058;-92
2022/05/20 00:22:49;;;;;;;3.72;1.80;;;;;;;14.91;45.46;102253.03;4938247;29;20089;-90
2022/05/20 00:28:00;;;;;;;2.38;1.55;;;;;;;14.67;45.97;102243.63;4954119;29;20152;-90
2022/05/20 00:30:26;;;;;;;5.25;1.88;;;;;;;14.55;46.53;102244.09;4921809;29;20510;-91
2022/05/20 00:32:52;;;;;;;4.13;1.75;;;;;;;14.47;46.73;102215.78;4937934;29;20444;-91
2022/05/20 00:35:17;;;;;;;3.83;1.70;;;;;;;14.62;46.39;102241.19;4937861;29;20019;-92
2022/05/20 00:37:44;;;;;;;4.50;1.90;;;;;;;14.64;45.70;102247.19;4954136;29;20031;-91
2022/05/20 00:40:10;;;;;;;2.80;1.70;;;;;;;14.68;45.82;102255.75;4937744;29;20037;-91
2022/05/20 00:42:36;;;;;;;3.25;1.95;;;;;;;14.66;45.86;102248.91;4938522;29;20027;-91
2022/05/20 00:45:05;;;;;;;7.47;1.98;;;;;;;14.67;46.59;102248.00;4954472;29;20050;-91
2022/05/20 00:47:30;;;;;;;3.10;1.70;;;;;;;14.64;46.07;102254.16;4939069;29;20031;-91
2022/05/20 00:49:56;;;;;;;2.47;1.50;;;;;;;14.52;45.34;102255.50;4938899;29;20050;-91
2022/05/20 00:52:23;;;;;;;2.65;1.60;;;;;;;14.40;45.77;102253.34;4923608;29;20019;-90
2022/05/20 00:54:51;;;;;;;3.92;1.67;;;;;;;14.39;45.82;102259.47;4939184;29;20476;-90
2022/05/20 00:57:20;;;;;;;2.38;1.58;;;;;;;14.39;45.54;102269.88;4923710;29;20027;-91
2022/05/20 00:59:53;;;;;;;3.97;1.80;;;;;;;14.33;46.03;102273.56;4923064;29;20035;-91
2022/05/20 01:02:20;;;;;;;6.13;1.83;;;;;;;14.21;46.79;102262.78;4954336;29;20110;-91
2022/05/20 01:04:45;;;;;;;5.18;1.70;;;;;;;14.21;47.15;102266.22;4939242;29;20034;-92
2022/05/20 01:07:11;;;;;;;3.60;1.73;;;;;;;14.28;46.48;102266.84;4938204;29;20090;-91
2022/05/20 01:09:37;;;;;;;3.58;1.92;;;;;;;14.30;45.94;102265.88;4937695;29;20052;-91
2022/05/20 01:12:03;;;;;;;3.55;1.65;;;;;;;14.27;46.25;102265.16;4937852;29;20090;-91
2022/05/20 01:14:28;;;;;;;4.57;1.65;;;;;;;14.15;45.87;102268.19;4937421;29;20026;-91
2022/05/20 01:16:54;;;;;;;3.83;1.90;;;;;;;14.22;45.75;102261.88;4925703;29;20027;-91
2022/05/20 01:19:29;;;;;;;6.53;1.98;;;;;;;14.20;46.00;102266.28;4941349;29;20055;-92
2022/05/20 01:21:54;;;;;;;2.30;1.50;;;;;;;14.27;45.78;102254.75;4957244;29;20046;-91
2022/05/20 01:24:20;;;;;;;3.75;1.83;;;;;;;14.25;46.17;102262.59;4956709;29;20468;-91
2022/05/20 01:26:45;;;;;;;5.07;1.80;;;;;;;14.20;46.79;102259.31;4941194;29;20023;-89
2022/05/20 01:29:11;;;;;;;3.78;1.60;;;;;;;14.19;45.92;102259.38;4941262;29;20034;-90
2022/05/20 01:31:36;;;;;;;2.75;1.70;;;;;;;14.17;46.37;102263.81;4941359;29;20038;-90
2022/05/20 01:34:02;;;;;;;3.25;1.92;;;;;;;14.01;46.74;102258.31;4941185;29;20031;-91
2022/05/20 01:36:27;;;;;;;4.85;2.28;;;;;;;14.10;47.08;102268.38;4941287;29;20031;-92
2022/05/20 01:38:53;;;;;;;4.15;1.80;;;;;;;14.07;46.52;102256.34;4925252;29;20392;-90
2022/05/20 01:41:28;;;;;;;2.55;1.75;;;;;;;13.90;47.18;102222.28;4926586;29;20034;-91
2022/05/20 01:44:09;;;;;;;3.40;1.80;;;;;;;14.16;47.27;102259.47;4958544;29;20380;-91
2022/05/20 01:46:42;;;;;;;3.60;1.83;;;;;;;13.99;47.49;102240.16;4960100;28;20023;-90
2022/05/20 01:49:26;;;;;;;4.85;1.90;;;;;;;14.03;47.47;102248.69;4943790;29;20023;-92
2022/05/20 01:52:06;;;;;;;2.60;1.90;;;;;;;14.04;47.40;102243.44;4958488;28;20074;-91
2022/05/20 01:54:35;;;;;;;2.97;2.00;;;;;;;14.10;47.13;102251.94;4942865;29;20023;-91
2022/05/20 01:57:27;;;;;;;2.78;1.77;;;;;;;14.02;47.14;102245.25;4959601;28;20019;-91
2022/05/20 01:59:56;;;;;;;5.13;1.98;;;;;;;13.81;47.48;102256.44;4959528;28;20016;-91
2022/05/20 02:02:37;;;;;;;2.63;1.80;;;;;;;13.73;47.86;102256.72;4958644;29;21020;-91
2022/05/20 02:05:08;;;;;;;4.38;2.10;;;;;;;13.73;47.74;102264.53;4943361;29;20472;-91
2022/05/20 02:07:34;;;;;;;5.05;2.55;;;;;;;13.71;47.68;102261.13;4942054;29;20031;-91
2022/05/20 02:10:31;;;;;;;4.18;1.80;;;;;;;13.50;48.12;102261.91;4926534;29;20026;-89
2022/05/20 02:12:59;;;;;;;4.10;2.03;;;;;;;13.27;49.02;102257.47;4941318;29;20027;-91
2022/05/20 02:15:47;;;;;;;3.75;2.10;;;;;;;13.31;49.47;102261.69;4958622;29;20023;-92
2022/05/20 02:18:22;;;;;;;6.70;2.20;;;;;;;13.37;50.01;102248.50;4959095;29;20031;-90
2022/05/20 02:20:53;;;;;;;2.92;1.70;;;;;;;13.44;49.73;102252.56;4958387;29;20050;-91
2022/05/20 02:23:21;;;;;;;5.65;2.00;;;;;;;13.39;50.08;102245.84;4926263;29;20035;-91
2022/05/20 02:25:55;;;;;;;3.53;1.90;;;;;;;13.51;49.28;102260.16;4957463;28;20051;-91
2022/05/20 02:28:23;;;;;;;4.57;1.98;;;;;;;13.49;50.03;102262.81;4956681;29;20102;-90
2022/05/20 02:30:49;;;;;;;6.18;2.10;;;;;;;13.49;49.46;102260.22;4957740;29;20028;-92
2022/05/20 02:33:17;;;;;;;3.83;2.00;;;;;;;13.48;50.01;102268.91;4941669;29;20465;-92
2022/05/20 02:35:43;;;;;;;6.00;1.98;;;;;;;13.56;49.43;102263.44;4926686;29;20031;-91
2022/05/20 02:38:12;;;;;;;5.05;2.20;;;;;;;13.59;49.88;102279.78;4943214;29;20118;-89
2022/05/20 02:40:38;;;;;;;5.70;2.00;;;;;;;13.54;50.25;102275.63;4940848;29;20167;-91
2022/05/20 02:43:04;;;;;;;3.72;1.90;;;;;;;13.44;49.15;102262.13;4923936;29;20042;-90
2022/05/20 02:45:29;;;;;;;2.80;1.70;;;;;;;13.43;48.36;102270.81;4955597;29;20023;-91
2022/05/20 02:47:55;;;;;;;3.28;1.95;;;;;;;13.32;49.28;102266.00;4924124;29;20031;-91
2022/05/20 02:50:20;;;;;;;5.03;1.80;;;;;;;13.31;48.73;102276.44;4940620;29;20491;-92
2022/05/20 02:52:46;;;;;;;3.88;2.00;;;;;;;13.16;49.12;102275.16;4956597;29;20035;-91
2022/05/20 02:55:11;;;;;;;4.93;2.00;;;;;;;13.10;49.25;102265.00;4954904;29;20023;-89
2022/05/20 02:57:37;;;;;;;4.40;2.00;;;;;;;13.14;49.38;102271.78;4923262;29;20023;-91
2022/05/20 03:05:32;;;;;;;4.50;1.77;;;;;;;13.10;49.18;102293.56;4940732;29;20066;-91
2022/05/20 03:07:57;;;;;;;3.72;1.92;;;;;;;12.95;49.83;102294.06;4954689;29;20058;-90
2022/05/20 03:10:22;;;;;;;4.18;2.17;;;;;;;12.91;49.86;102291.56;4938520;29;20031;-91
2022/05/20 03:12:48;;;;;;;5.55;1.85;;;;;;;12.88;49.78;102288.19;4922754;29;20086;-91
2022/05/20 03:15:15;;;;;;;7.30;1.88;;;;;;;13.02;49.50;102295.56;4954535;29;20035;-90
2022/05/20 03:17:40;;;;;;;3.95;2.00;;;;;;;12.88;50.13;102283.00;4954638;29;20020;-90
2022/05/20 03:20:08;;;;;;;3.67;2.10;;;;;;;13.02;50.31;102290.38;4938106;29;20118;-91
2022/05/20 03:22:34;;;;;;;4.93;2.20;;;;;;;13.17;50.35;102298.53;4954792;29;20397;-91
2022/05/20 03:25:00;;;;;;;5.88;2.03;;;;;;;13.21;49.26;102296.69;4938612;29;20030;-91
2022/05/20 03:27:25;;;;;;;7.10;2.50;;;;;;;13.10;49.62;102298.78;4938198;29;20027;-91
2022/05/20 03:29:51;;;;;;;12.02;2.45;;;;;;;13.09;50.88;102297.06;4954376;29;20480;-91
2022/05/20 03:32:16;;;;;;;7.47;2.13;;;;;;;13.09;50.18;102277.13;4922552;29;20520;-90
2022/05/20 03:34:43;;;;;;;3.58;2.03;;;;;;;13.09;49.95;102302.28;4959167;28;20019;-91
2022/05/20 03:37:08;;;;;;;6.05;1.98;;;;;;;13.09;49.56;102302.28;4957413;28;20030;-89
2022/05/20 03:39:35;;;;;;;9.10;2.17;;;;;;;13.11;49.45;102300.47;4941132;28;20502;-90
2022/05/20 03:42:02;;;;;;;3.90;2.20;;;;;;;13.14;50.13;102301.19;4957341;28;20046;-91
2022/05/20 03:44:27;;;;;;;4.35;2.10;;;;;;;13.09;50.18;102302.28;4956833;28;20158;-89
2022/05/20 03:46:53;;;;;;;5.47;2.30;;;;;;;13.18;49.79;102296.78;4940685;28;20113;-90
2022/05/20 03:49:20;;;;;;;3.85;2.00;;;;;;;13.36;49.19;102306.56;4957148;28;20101;-92
2022/05/20 03:51:47;;;;;;;5.35;2.00;;;;;;;13.37;49.14;102313.47;4957104;28;20031;-92
2022/05/20 03:54:13;;;;;;;5.22;2.28;;;;;;;13.55;48.64;102316.34;4973453;28;20033;-90
2022/05/20 03:56:40;;;;;;;8.00;2.15;;;;;;;13.49;49.25;102315.66;4973232;28;20026;-91
2022/05/20 03:59:08;;;;;;;5.65;2.03;;;;;;;13.39;49.62;102308.22;4956902;28;20089;-91
2022/05/20 04:04:18;;;;;;;6.43;2.47;;;;;;;13.32;49.75;102315.38;4972972;28;20551;-92
2022/05/20 04:06:43;;;;;;;4.40;2.13;;;;;;;13.64;49.22;102316.88;4955905;28;20023;-88
2022/05/20 04:09:09;;;;;;;5.55;2.20;;;;;;;13.84;49.04;102308.34;4953001;28;20034;-86
2022/05/20 04:11:34;;;;;;;5.20;2.05;;;;;;;13.58;49.25;102298.91;4954869;28;20029;-85
2022/05/20 04:14:01;;;;;;;6.43;2.40;;;;;;;13.75;49.29;102329.50;4939184;28;20499;-85
2022/05/20 04:16:28;;;;;;;8.93;4.15;;;;;;;13.88;48.82;102320.38;4933967;29;20421;-88
2022/05/20 04:18:53;;;;;;;4.80;2.53;;;;;;;13.91;49.03;102337.63;4931959;29;20102;-91
2022/05/20 04:21:19;;;;;;;4.10;1.90;;;;;;;13.85;49.16;102338.66;4948725;28;20038;-88
2022/05/20 04:23:44;;;;;;;5.03;2.53;;;;;;;13.81;48.86;102323.25;4935281;29;20071;-87
2022/05/20 04:26:10;;;;;;;5.00;2.50;;;;;;;13.99;49.27;102333.84;4950971;29;20475;-86
2022/05/20 04:28:36;;;;;;;11.00;6.10;;;;;;;14.14;48.56;102331.56;4951480;29;20023;-88
2022/05/20 04:31:03;;;;;;;4.22;2.53;;;;;;;14.20;49.25;102339.16;4951569;29;20086;-88
2022/05/20 04:33:28;;;;;;;4.38;2.60;;;;;;;14.21;49.21;102335.66;4951824;29;20504;-87
2022/05/20 04:35:54;;;;;;;5.15;2.55;;;;;;;14.21;49.62;102333.06;4922933;28;20094;-90
2022/05/20 04:38:20;;;;;;;6.22;3.40;;;;;;;14.38;48.84;102340.25;4935224;29;20034;-89
2022/05/20 04:46:56;;;;;;;6.97;3.00;;;;;;;14.39;48.91;102329.75;4923761;28;20031;-85
2022/05/20 04:48:59;;;;;;;12.60;3.53;;;;;;;14.46;49.57;102333.88;4967717;28;20093;-88
2022/05/20 04:51:24;;;;;;;5.53;3.17;;;;;;;14.62;49.92;102349.75;4966518;28;20035;-91
2022/05/20 04:56:34;;;;;;;6.15;2.92;;;;;;;14.86;49.50;102333.16;4951876;28;20058;-90
2022/05/20 04:59:00;;;;;;;4.97;2.80;;;;;;;14.96;48.67;102336.25;4920505;28;20497;-86
2022/05/20 05:01:26;;;;;;;6.30;2.90;;;;;;;14.82;47.80;102302.06;4971514;28;20026;-88
2022/05/20 05:03:54;;;;;;;10.40;4.40;;;;;;;15.13;47.79;102339.00;4979222;28;20031;-91
2022/05/20 05:06:19;;;;;;;5.80;2.53;;;;;;;15.21;52.55;102336.94;4965003;28;20034;-89
2022/05/20 05:08:45;;;;;;;5.25;3.20;;;;;;;15.21;48.79;102316.09;4941744;28;20460;-88
2022/05/20 05:11:10;;;;;;;6.82;3.35;;;;;;;15.38;46.83;102345.84;4953981;28;20031;-88
2022/05/20 05:13:36;;;;;;;5.35;3.10;;;;;;;15.32;48.44;102333.03;4968912;28;20031;-85
2022/05/20 05:16:06;;;;;;;7.68;3.45;;;;;;;15.46;48.96;102343.75;4970498;28;20464;-89
2022/05/20 05:18:32;;;;;;;6.55;3.63;;;;;;;15.48;51.02;102326.28;4950960;29;20082;-87
2022/05/20 05:20:59;;;;;;;10.77;4.15;;;;;;;15.74;49.61;102338.25;4965620;28;20121;-90
2022/05/20 05:23:24;;;;;;;14.35;4.28;;;;;;;15.78;50.28;102329.34;4970237;28;20031;-89
2022/05/20 05:25:49;;;;;;;9.52;4.25;;;;;;;15.90;48.31;102336.63;4955831;28;20035;-84
2022/05/20 05:28:16;;;;;;;8.15;4.25;;;;;;;16.00;48.40;102344.91;4965001;28;20530;-84
2022/05/20 05:30:45;;;;;;;11.52;4.80;;;;;;;15.95;48.14;102311.19;4949143;28;20416;-84
2022/05/20 05:33:10;;;;;;;14.65;5.88;;;;;;;16.20;47.03;102330.97;4949104;28;20050;-87
2022/05/20 05:35:36;;;;;;;11.68;5.00;;;;;;;16.29;47.49;102325.31;4979718;28;20413;-86
2022/05/20 05:38:01;;;;;;;10.75;4.30;;;;;;;16.49;46.14;102337.47;4953436;28;20034;-84
2022/05/20 05:40:28;;;;;;;10.55;5.55;;;;;;;16.56;46.44;102336.25;4956756;28;20031;-87
2022/05/20 05:42:55;;;;;;;13.35;5.88;;;;;;;16.66;46.81;102326.22;4909062;28;20059;-88
2022/05/20 05:45:21;;;;;;;8.77;4.57;;;;;;;16.80;44.73;102331.66;4950626;28;20031;-91
2022/05/20 05:47:50;;;;;;;9.82;3.75;;;;;;;16.91;44.06;102339.84;4921133;28;20027;-88
2022/05/20 05:50:15;;;;;;;12.60;4.22;;;;;;;17.01;45.29;102329.78;4954875;28;20117;-87
2022/05/20 05:52:41;;;;;;;7.70;3.60;;;;;;;17.09;44.70;102332.88;4969178;28;20510;-88
2022/05/20 05:55:07;;;;;;;8.57;3.70;;;;;;;17.22;43.78;102339.19;4984493;28;20928;-90
2022/05/20 05:57:32;;;;;;;6.25;3.00;;;;;;;17.01;43.20;102321.94;4934779;28;20117;-83
2022/05/20 05:59:58;;;;;;;5.20;3.17;;;;;;;17.16;44.14;102326.41;4967683;28;20035;-85
2022/05/20 06:02:24;;;;;;;5.70;3.13;;;;;;;17.53;44.64;102350.75;4954457;28;20057;-85
2022/05/20 06:04:51;;;;;;;6.88;3.50;;;;;;;17.57;43.22;102347.88;4929610;28;20026;-89
2022/05/20 06:07:17;;;;;;;8.00;5.13;;;;;;;17.73;45.46;102334.88;4969742;28;20045;-90
2022/05/20 06:09:42;;;;;;;5.65;3.33;;;;;;;17.87;44.58;102337.63;4952719;28;20039;-87
2022/05/20 06:12:09;;;;;;;8.90;3.10;;;;;;;18.02;44.09;102333.38;4942458;28;20480;-86
2022/05/20 06:14:35;;;;;;;5.28;3.03;;;;;;;18.14;42.89;102331.84;4967438;28;20030;-90
2022/05/20 06:17:00;;;;;;;5.93;2.90;;;;;;;18.11;41.66;102329.41;4940210;28;20046;-91
2022/05/20 06:19:26;;;;;;;5.50;2.80;;;;;;;18.27;43.42;102335.50;4966939;28;20070;-92
2022/05/20 06:21:52;;;;;;;8.23;3.30;;;;;;;18.58;43.56;102340.78;4929282;28;20051;-89
2022/05/20 06:24:17;;;;;;;5.15;2.90;;;;;;;18.72;42.52;102339.19;4960578;28;20037;-86
2022/05/20 06:26:43;;;;;;;8.65;3.00;;;;;;;18.74;42.31;102318.97;4978954;28;20054;-87
2022/05/20 06:29:08;;;;;;;9.00;2.90;;;;;;;18.97;42.78;102328.97;4954325;28;20026;-88
2022/05/20 06:31:34;;;;;;;6.88;2.78;;;;;;;19.07;42.60;102319.63;4974642;28;20033;-88
2022/05/20 06:33:59;;;;;;;9.20;2.60;;;;;;;19.27;40.99;102328.13;4978903;28;20031;-91
2022/05/20 06:42:13;;;;;;;5.53;2.78;;;;;;;19.68;40.90;102313.44;4955921;28;20063;-87
2022/05/20 06:44:38;;;;;;;5.38;2.53;;;;;;;19.81;38.54;102321.41;4957943;28;20022;-87
2022/05/20 06:47:04;;;;;;;5.07;2.50;;;;;;;19.85;39.03;102327.31;4978678;28;20058;-84
2022/05/20 06:49:30;;;;;;;9.63;2.30;;;;;;;20.00;39.47;102318.50;4961060;28;20023;-92
2022/05/20 06:51:56;;;;;;;6.75;2.92;;;;;;;20.15;38.97;102307.03;4949000;28;20042;-87
2022/05/20 06:54:22;;;;;;;7.57;2.40;;;;;;;20.38;38.78;102302.97;4968818;28;20034;-93
2022/05/20 06:56:47;;;;;;;8.57;4.55;;;;;;;20.60;37.47;102312.97;4955645;28;20427;-86
2022/05/20 06:59:13;;;;;;;8.65;2.40;;;;;;;20.69;35.32;102293.97;4968416;28;20038;-85
2022/05/20 07:01:39;;;;;;;6.93;2.90;;;;;;;21.01;36.22;102312.88;4968439;28;20035;-87
2022/05/20 07:04:05;;;;;;;7.13;3.60;;;;;;;21.21;35.05;102314.19;4957141;28;20039;-88
2022/05/20 07:06:32;;;;;;;5.07;3.03;;;;;;;21.35;34.74;102297.50;4961390;28;20039;-87
2022/05/20 07:08:58;;;;;;;4.65;2.50;;;;;;;21.44;33.40;102310.91;4960886;28;20354;-86
2022/05/20 07:11:25;;;;;;;6.40;2.20;;;;;;;21.54;32.80;102305.00;4968027;28;20094;-91
2022/05/20 07:13:54;;;;;;;6.45;2.75;;;;;;;21.69;31.32;102312.66;4926720;29;20544;-84
2022/05/20 07:16:20;;;;;;;47.13;31.42;;;;;;;21.68;32.67;102278.53;4962212;28;20027;-85
2022/05/20 07:18:45;;;;;;;3.90;2.47;;;;;;;22.04;32.80;102302.31;4969505;28;20393;-85
2022/05/20 07:21:11;;;;;;;4.32;1.80;;;;;;;22.20;30.34;102309.13;4967548;28;20085;-88
2022/05/20 07:23:36;;;;;;;4.38;1.75;;;;;;;22.25;28.14;102297.31;4954733;28;20032;-88
2022/05/20 07:26:02;;;;;;;3.53;1.73;;;;;;;22.30;27.10;102296.97;4952598;28;20039;-91
2022/05/20 07:28:28;;;;;;;3.85;1.90;;;;;;;22.42;27.84;102292.59;4946408;28;20429;-89
2022/05/20 07:30:55;;;;;;;4.50;1.83;;;;;;;22.58;27.77;102301.09;4957500;28;20042;-91
2022/05/20 07:33:20;;;;;;;5.70;2.30;;;;;;;22.72;27.70;102289.53;4951771;28;20035;-84
2022/05/20 07:35:46;;;;;;;3.80;1.70;;;;;;;22.82;28.93;102288.75;4952268;28;20114;-88
2022/05/20 07:38:11;;;;;;;6.43;2.72;;;;;;;22.90;27.29;102282.91;4960131;28;20085;-88
2022/05/20 07:40:37;;;;;;;4.80;1.85;;;;;;;22.99;26.82;102287.50;4964167;28;20042;-91
2022/05/20 07:43:02;;;;;;;4.53;1.80;;;;;;;23.05;26.92;102283.56;4934327;28;20047;-88
2022/05/20 07:45:28;;;;;;;4.88;1.60;;;;;;;23.33;24.65;102287.59;4925426;28;20484;-89
2022/05/20 07:47:53;;;;;;;3.00;1.40;;;;;;;23.44;24.35;102287.59;4955898;28;20058;-89
2022/05/20 07:50:19;;;;;;;4.38;1.80;;;;;;;23.51;22.97;102291.47;4931861;29;20031;-89
2022/05/20 07:55:32;;;;;;;4.60;2.28;;;;;;;23.68;22.83;102279.59;4937762;28;20094;-85
2022/05/20 07:57:57;;;;;;;6.80;4.63;;;;;;;23.71;23.30;102274.09;4927940;28;20085;-92
2022/05/20 08:00:23;;;;;;;4.07;1.98;;;;;;;23.72;24.08;102263.38;4958525;28;20027;-85
2022/05/20 08:02:49;;;;;;;10.80;6.55;;;;;;;23.90;24.59;102284.88;4955456;28;20118;-91
2022/05/20 08:05:14;;;;;;;6.95;4.45;;;;;;;23.79;24.35;102255.78;4958129;28;20423;-90
2022/05/20 08:07:44;;;;;;;3.65;1.55;;;;;;;23.73;23.71;102258.94;4935711;28;20089;-91
2022/05/20 08:10:12;;;;;;;4.53;1.67;;;;;;;23.96;25.04;102267.69;4944181;28;20046;-90
2022/05/20 08:12:38;;;;;;;10.43;2.78;;;;;;;24.17;25.76;102271.25;4944467;28;20035;-90
2022/05/20 08:15:04;;;;;;;7.00;3.03;;;;;;;24.36;26.07;102265.34;4955297;28;20035;-89
2022/05/20 08:17:29;;;;;;;6.72;2.22;;;;;;;24.46;23.60;102255.69;4963666;28;20119;-91
2022/05/20 08:19:55;;;;;;;4.43;2.20;;;;;;;24.56;23.36;102261.06;4933752;29;20141;-87
2022/05/20 08:22:24;;;;;;;3.92;1.92;;;;;;;24.79;27.61;102261.81;4974483;28;20030;-89
2022/05/20 08:24:53;;;;;;;3.55;1.55;;;;;;;25.01;23.50;102266.97;4954375;28;20047;-90
2022/05/20 08:27:20;;;;;;;7.53;3.60;;;;;;;24.93;22.87;102263.28;4954999;28;20031;-86
2022/05/20 08:29:45;;;;;;;4.53;2.97;;;;;;;24.94;23.36;102259.69;4948353;28;20035;-90
2022/05/20 08:32:11;;;;;;;6.85;2.83;;;;;;;24.89;24.20;102247.69;4955474;28;20474;-86
2022/05/20 08:34:36;;;;;;;4.50;2.10;;;;;;;25.02;23.06;102247.50;4954590;28;20038;-90
2022/05/20 08:37:03;;;;;;;5.55;1.92;;;;;;;24.97;23.19;102254.94;4952385;28;20049;-87
2022/05/20 08:39:28;;;;;;;6.65;2.53;;;;;;;24.91;26.37;102254.66;4947530;28;20118;-89
2022/05/20 08:41:54;;;;;;;5.50;1.90;;;;;;;25.24;23.76;102259.75;4951980;28;20121;-89
2022/05/20 08:44:21;;;;;;;4.32;1.70;;;;;;;25.48;22.93;102270.06;4922080;28;20051;-88
2022/05/20 08:46:47;;;;;;;3.85;2.10;;;;;;;25.40;22.74;102257.47;4942391;28;20031;-91
2022/05/20 08:49:18;;;;;;;6.68;2.83;;;;;;;25.32;21.20;102246.69;4963762;28;20506;-86
2022/05/20 08:51:48;;;;;;;8.27;2.97;;;;;;;25.27;21.94;102254.22;4956848;28;20121;-85
2022/05/20 08:54:13;;;;;;;5.78;2.40;;;;;;;25.40;22.82;102260.13;4955278;28;20037;-90
2022/05/20 08:56:39;;;;;;;3.65;1.80;;;;;;;25.26;21.39;102239.25;4960620;28;20456;-90
2022/05/20 08:59:06;;;;;;;3.65;1.70;;;;;;;25.31;21.98;102229.13;4964984;28;20089;-85
2022/05/20 09:01:39;;;;;;;7.47;2.40;;;;;;;25.56;22.69;102253.47;4924083;28;20031;-85
2022/05/20 09:04:10;;;;;;;3.35;1.92;;;;;;;25.57;22.11;102226.03;4948314;28;20170;-88
2022/05/20 09:06:57;;;;;;;4.53;2.67;;;;;;;25.84;23.43;102238.69;4966286;28;20027;-87
2022/05/20 09:09:23;;;;;;;2.50;1.52;;;;;;;25.76;21.39;102228.75;4951788;28;20031;-84
2022/05/20 09:11:56;;;;;;;2.08;1.20;;;;;;;25.80;20.68;102232.00;4937833;28;20038;-87
2022/05/20 09:17:23;;;;;;;8.50;4.90;;;;;;;26.14;21.42;102213.91;4962101;28;20097;-85
2022/05/20 09:19:58;;;;;;;6.82;2.72;;;;;;;26.34;21.97;102226.19;4962000;28;20409;-89
2022/05/20 09:22:28;;;;;;;11.13;2.72;;;;;;;26.10;22.33;102210.69;4945076;28;20035;-87
2022/05/20 09:24:54;;;;;;;8.73;5.45;;;;;;;26.18;21.76;102215.31;4963659;28;20097;-88
2022/05/20 09:27:31;;;;;;;3.95;2.30;;;;;;;26.35;20.01;102214.63;4947122;28;20028;-86
2022/05/20 09:30:00;;;;;;;2.45;1.85;;;;;;;26.41;21.37;102219.41;4949055;28;20023;-90
2022/05/20 09:32:43;;;;;;;2.85;1.60;;;;;;;26.12;20.48;102200.78;4950162;28;20035;-88
2022/05/20 09:35:14;;;;;;;7.63;2.10;;;;;;;26.39;21.14;102207.25;4948294;28;20055;-88
2022/05/20 09:37:40;;;;;;;6.68;2.30;;;;;;;26.33;21.39;102192.69;4969735;28;20039;-89
2022/05/20 09:40:38;;;;;;;4.03;1.90;;;;;;;26.31;21.13;102199.94;4942974;28;20732;-92
2022/05/20 09:43:11;;;;;;;6.68;1.88;;;;;;;26.44;22.42;102187.25;4952076;28;20055;-86
2022/05/20 09:45:46;;;;;;;2.45;1.67;;;;;;;26.92;21.62;102199.63;4959090;28;20150;-90
2022/05/20 09:48:15;;;;;;;5.10;2.40;;;;;;;26.79;20.71;102185.81;4965464;28;20171;-88
2022/05/20 09:50:41;;;;;;;6.38;1.95;;;;;;;27.07;21.23;102192.91;4964223;28;20110;-91
2022/05/20 09:53:28;;;;;;;4.45;1.85;;;;;;;27.09;20.65;102196.25;4934377;28;20035;-89
2022/05/20 09:55:53;;;;;;;2.90;1.80;;;;;;;26.89;20.17;102162.75;4972578;28;20042;-91
2022/05/20 09:58:21;;;;;;;2.72;1.90;;;;;;;27.13;20.75;102186.16;4955685;28;20034;-93
2022/05/20 10:01:08;;;;;;;3.72;1.50;;;;;;;27.55;21.77;102186.56;4949651;28;20081;-91
2022/05/20 10:04:01;;;;;;;3.92;1.83;;;;;;;27.98;21.20;102177.06;4964699;28;20062;-94
2022/05/20 10:06:38;;;;;;;3.75;1.95;;;;;;;28.04;21.70;102171.16;4951992;28;20567;-91
2022/05/20 10:09:21;;;;;;;5.80;2.67;;;;;;;27.65;22.07;102144.81;4945929;28;20046;-88
2022/05/20 10:12:06;;;;;;;4.22;1.40;;;;;;;27.63;19.95;102173.34;4966412;28;20042;-90
2022/05/20 10:14:44;;;;;;;5.03;2.35;;;;;;;27.54;19.87;102174.25;4963970;28;20038;-90
2022/05/20 10:17:12;;;;;;;6.50;2.50;;;;;;;27.54;21.16;102160.13;4967995;28;20061;-89
2022/05/20 10:20:02;;;;;;;2.35;1.50;;;;;;;27.53;20.80;102155.75;4970704;28;20076;-95
2022/05/20 10:22:40;;;;;;;3.47;1.70;;;;;;;27.79;20.33;102159.41;4967210;28;20484;-92
2022/05/20 10:25:12;;;;;;;5.15;2.20;;;;;;;27.62;20.25;102145.06;4962555;28;20070;-90
2022/05/20 10:27:37;;;;;;;;;;;;;;;27.53;19.51;102153.97;4951422;28;20085;-89
2022/05/20 10:33:05;;;;;;;7.65;2.58;;;;;;;27.40;20.54;102145.50;4966166;28;20130;-92
2022/05/20 10:35:55;;;;;;;5.40;2.33;;;;;;;27.64;20.55;102152.91;4965812;28;20026;-93
2022/05/20 10:38:34;;;;;;;4.38;1.90;;;;;;;27.98;20.29;102140.66;4967726;28;20066;-92
2022/05/20 10:41:06;;;;;;;4.18;1.55;;;;;;;27.67;20.13;102142.84;4968480;28;20133;-92
2022/05/20 10:50:05;;;;;;;3.33;1.63;;;;;;;27.61;19.85;102122.13;4965153;28;20045;-91
2022/05/20 10:52:52;;;;;;;17.90;11.63;;;;;;;27.87;20.99;102116.13;4966772;28;20022;-93
2022/05/20 10:55:33;;;;;;;2.38;1.58;;;;;;;27.99;19.89;102114.88;4969978;28;20045;-90
2022/05/20 10:58:24;;;;;;;2.58;1.40;;;;;;;28.11;19.14;102105.66;4966364;28;20038;-90
2022/05/20 11:00:51;;;;;;;6.40;2.83;;;;;;;28.18;20.31;102087.28;4966452;28;20034;-87
2022/05/20 11:03:41;;;;;;;3.03;1.80;;;;;;;28.51;20.41;102096.34;4951545;28;20022;-89
2022/05/20 11:06:37;;;;;;;3.03;1.48;;;;;;;28.80;19.83;102074.69;4966866;28;20125;-91
2022/05/20 11:09:10;;;;;;;2.88;1.45;;;;;;;28.98;19.61;102080.81;4969694;28;20058;-91
2022/05/20 11:11:59;;;;;;;3.47;1.60;;;;;;;28.92;19.03;102077.97;4969289;28;20034;-92
2022/05/20 11:14:30;;;;;;;3.92;1.80;;;;;;;28.86;19.39;102082.91;4960399;28;20031;-90
2022/05/20 11:17:08;;;;;;;2.53;1.60;;;;;;;29.09;20.06;102069.84;4966543;28;20377;-86
2022/05/20 11:19:51;;;;;;;4.32;1.70;;;;;;;29.26;20.55;102068.09;4966236;28;20638;-88
2022/05/20 11:22:20;;;;;;;3.92;1.83;;;;;;;29.18;19.97;102067.22;4966101;28;20042;-92
2022/05/20 11:25:05;;;;;;;4.13;1.92;;;;;;;29.06;19.43;102066.69;4965776;28;20041;-90
2022/05/20 11:28:01;;;;;;;6.03;1.50;;;;;;;29.08;18.64;102054.03;4967560;28;20030;-88
2022/05/20 11:30:43;;;;;;;4.07;1.40;;;;;;;29.51;18.51;102044.19;4947280;28;20038;-87
2022/05/20 11:33:39;;;;;;;2.72;1.40;;;;;;;29.61;18.89;102045.69;4948968;28;20034;-86
2022/05/20 11:36:15;;;;;;;4.78;1.70;;;;;;;29.51;18.26;102044.19;4969164;28;20046;-94
2022/05/20 11:38:53;;;;;;;2.35;1.60;;;;;;;29.41;18.61;102031.81;4964285;28;20492;-88
2022/05/20 11:41:31;;;;;;;2.92;1.50;;;;;;;29.61;18.56;102034.19;4967871;28;20037;-86
2022/05/20 11:44:26;;;;;;;2.88;1.50;;;;;;;29.26;18.00;102043.25;4966042;28;20159;-82
2022/05/20 11:46:58;;;;;;;3.15;1.65;;;;;;;29.13;18.41;102041.06;4964887;28;20034;-87
2022/05/20 11:49:46;;;;;;;3.08;1.38;;;;;;;29.29;17.96;102029.59;4970651;28;20359;-86
2022/05/20 11:52:14;;;;;;;3.65;1.33;;;;;;;29.45;18.42;102034.13;4964103;28;20041;-89
2022/05/20 11:54:51;;;;;;;2.92;1.50;;;;;;;29.42;18.05;102014.81;4963134;28;20039;-88
2022/05/20 11:57:18;;;;;;;3.63;1.60;;;;;;;29.51;18.21;102022.84;4964622;28;20031;-92
2022/05/20 12:00:19;;;;;;;3.70;1.50;;;;;;;29.37;18.16;102011.78;4947656;28;20133;-88
2022/05/20 12:03:02;;;;;;;4.95;1.92;;;;;;;29.54;18.80;102014.50;4953918;28;20403;-86
2022/05/20 12:05:30;;;;;;;2.70;1.30;;;;;;;29.60;18.66;102011.19;4948016;28;20486;-89
2022/05/20 12:07:56;;;;;;;2.80;1.50;;;;;;;29.77;18.24;101996.84;4948267;28;20534;-87
2022/05/20 12:10:48;;;;;;;2.35;1.55;;;;;;;30.02;18.27;102000.31;4966517;28;20034;-85
2022/05/20 12:13:22;;;;;;;4.03;1.90;;;;;;;29.96;19.34;101975.13;4960776;28;20047;-87
2022/05/20 12:16:12;;;;;;;6.95;6.18;;;;;;;30.12;19.37;101984.97;4969897;28;20057;-86